CheckWX is a tool to help pilots better visualize weather data.  It is not intended as a substitute for an official pre-flight weather briefing.

22:21:44 UTC

KPIR METAR
Pierre Regional Airport
Pierre, South Dakota, USA
Current

29 mins ago

KPIR 082153Z AUTO 31021G34KT 10SM FEW090 11/M09 A3003 RMK AO2 PK WND 32034/2149 SLP171 T01111089
Observed
Apr-8 @ 21:53 UTC
Wind
  • 310° at 21 KTS
  • Gusting to 34 KTS
Visibility
Flight Rules
VFR
Cloud Levels
  • Few at 9,000' AGL
Temperature
11°C / 52°F
Dewpoint
-9°C / 16°F
Humidity
24%
Altimeter
30.03" Hg
Pressure
1016.92 hPa
Previous

1 hour ago

KPIR 082053Z AUTO 31019G33KT 10SM CLR 12/M08 A3005 RMK AO2 PK WND 33034/2024 SLP179 T01221078 58023
Observed
Apr-8 @ 20:53 UTC
Wind
  • 310° at 19 KTS
  • Gusting to 33 KTS
Visibility
Flight Rules
VFR
Cloud Levels
  • Clear skies
Temperature
12°C / 54°F
Dewpoint
-8°C / 18°F
Humidity
24%
Altimeter
30.05" Hg
Pressure
1017.62 hPa
Previous

2 hours ago

KPIR 081953Z AUTO 30023G29KT 10SM CLR 12/M08 A3007 RMK AO2 PK WND 31032/1939 SLP186 T01171078
Observed
Apr-8 @ 19:53 UTC
Wind
  • 300° at 23 KTS
  • Gusting to 29 KTS
Visibility
Flight Rules
VFR
Cloud Levels
  • Clear skies
Temperature
12°C / 54°F
Dewpoint
-8°C / 18°F
Humidity
24%
Altimeter
30.07" Hg
Pressure
1018.32 hPa